Time;durP1;ratioP1;P1;durP2;ratioP2;P2;SDS_P1;SDS_P2;PMS_P1;PMS_P2;Temp;Humidity;BMP_temperature;BMP_pressure;BME280_temperature;BME280_humidity;BME280_pressure;Samples;Min_cycle;Max_cycle;Signal;HPM_P1;HPM_P2
2021/04/01 00:00:42;;;;;;;37.70;27.60;;;;;;;10.55;70.62;100587.70;1818170;77;25881;-76
2021/04/01 00:03:08;;;;;;;43.45;27.67;;;;;;;10.53;70.69;100588.34;1819148;77;25716;-77
2021/04/01 00:05:34;;;;;;;39.08;27.15;;;;;;;10.51;70.68;100587.70;1747605;79;31913;-77
2021/04/01 00:08:00;;;;;;;45.13;28.27;;;;;;;10.49;70.80;100579.19;1805545;77;26119;-77
2021/04/01 00:10:37;;;;;;;45.55;29.75;;;;;;;10.48;70.81;100582.30;1819561;77;26590;-77
2021/04/01 00:13:03;;;;;;;42.75;26.57;;;;;;;10.50;70.98;100580.33;1821737;77;26065;-77
2021/04/01 00:15:30;;;;;;;44.00;27.27;;;;;;;10.54;70.92;100571.70;1820670;77;25828;-77
2021/04/01 00:17:56;;;;;;;42.05;28.15;;;;;;;10.53;70.88;100572.66;1757311;80;26484;-77
2021/04/01 00:20:22;;;;;;;41.05;28.67;;;;;;;10.48;70.80;100567.92;1765974;80;26711;-77
2021/04/01 00:22:48;;;;;;;47.00;30.20;;;;;;;10.48;70.93;100565.31;1790300;78;26564;-74
2021/04/01 00:25:17;;;;;;;46.73;30.20;;;;;;;10.46;70.93;100559.92;1792508;78;25391;-75
2021/04/01 00:27:46;;;;;;;43.50;28.50;;;;;;;10.45;71.00;100555.19;1752306;78;25263;-75
2021/04/01 00:30:14;;;;;;;42.58;29.52;;;;;;;10.39;70.91;100555.33;1791432;78;25675;-74
2021/04/01 00:32:40;;;;;;;41.33;29.77;;;;;;;10.37;71.00;100546.02;1821912;77;25854;-74
2021/04/01 00:35:07;;;;;;;47.95;29.98;;;;;;;10.30;71.08;100544.51;1820618;77;25930;-77
2021/04/01 00:37:34;;;;;;;42.23;30.35;;;;;;;10.28;71.25;100545.64;1820407;77;25790;-75
2021/04/01 00:39:59;;;;;;;43.92;29.15;;;;;;;10.28;71.22;100541.72;1750798;80;25735;-75
2021/04/01 00:42:26;;;;;;;48.37;30.07;;;;;;;10.26;71.34;100537.11;1752210;80;30785;-75
2021/04/01 00:44:52;;;;;;;44.58;29.60;;;;;;;10.20;71.25;100533.33;1767973;79;25777;-75
2021/04/01 00:47:17;;;;;;;42.60;28.40;;;;;;;10.20;71.39;100535.95;1765890;79;27496;-74
2021/04/01 00:49:43;;;;;;;40.33;28.13;;;;;;;10.19;71.38;100529.91;1738510;80;25750;-75
2021/04/01 00:52:10;;;;;;;41.40;27.00;;;;;;;10.16;71.42;100522.39;1764722;79;33685;-75
2021/04/01 00:54:37;;;;;;;41.10;28.05;;;;;;;10.14;71.45;100521.73;1768778;80;25808;-74
2021/04/01 00:57:04;;;;;;;48.45;28.40;;;;;;;10.14;71.51;100522.22;1782249;78;26363;-75
2021/04/01 00:59:31;;;;;;;41.50;28.07;;;;;;;10.15;71.62;100522.08;1779705;78;25339;-77
2021/04/01 01:02:04;;;;;;;40.20;28.87;;;;;;;10.14;71.55;100515.69;1763725;79;25851;-77
2021/04/01 01:04:25;;;;;;;40.15;29.60;;;;;;;10.14;71.58;100507.36;1762237;79;25855;-77
2021/04/01 01:06:50;;;;;;;45.90;29.85;;;;;;;10.11;71.54;100502.95;1766194;79;25884;-77
2021/04/01 01:09:16;;;;;;;41.07;31.03;;;;;;;10.09;71.70;100495.26;1764768;79;26531;-77
2021/04/01 01:11:42;;;;;;;42.60;28.83;;;;;;;10.10;71.84;100501.33;1768073;79;26964;-76
2021/04/01 01:14:09;;;;;;;41.10;30.03;;;;;;;10.11;71.87;100495.12;1765539;79;25787;-77
2021/04/01 01:16:36;;;;;;;45.20;30.23;;;;;;;10.12;71.87;100494.13;1769034;79;26329;-77
2021/04/01 01:19:04;;;;;;;41.60;29.48;;;;;;;10.06;71.75;100488.23;1767377;79;25778;-77
2021/04/01 01:21:31;;;;;;;45.20;29.57;;;;;;;10.01;71.81;100488.70;1765612;79;25839;-77
2021/04/01 01:23:57;;;;;;;40.03;27.95;;;;;;;9.96;71.76;100477.45;1764177;78;25744;-75
2021/04/01 01:26:23;;;;;;;43.38;29.70;;;;;;;9.96;71.80;100474.84;1767773;79;25741;-77
2021/04/01 01:28:49;;;;;;;44.23;29.02;;;;;;;9.92;71.79;100477.91;1766971;79;25916;-77
2021/04/01 01:31:18;;;;;;;39.97;28.87;;;;;;;9.89;71.82;100475.13;1765961;79;32294;-77
2021/04/01 01:33:44;;;;;;;38.95;27.30;;;;;;;9.92;71.97;100468.28;1768194;79;25812;-77
2021/04/01 01:36:12;;;;;;;43.37;27.67;;;;;;;9.97;71.97;100469.94;1747816;80;27927;-77
2021/04/01 01:38:39;;;;;;;38.25;28.80;;;;;;;10.05;72.01;100467.84;1785297;78;25744;-77
2021/04/01 01:41:06;;;;;;;42.73;27.50;;;;;;;10.09;71.92;100467.84;1789505;78;25274;-77
2021/04/01 01:43:34;;;;;;;40.43;29.45;;;;;;;10.03;71.54;100465.87;1791501;78;25752;-76
2021/04/01 01:46:01;;;;;;;43.20;30.20;;;;;;;9.93;71.64;100457.34;1790293;78;26220;-75
2021/04/01 01:48:27;;;;;;;40.10;28.42;;;;;;;9.90;71.78;100457.66;1790218;78;25828;-75
2021/04/01 01:50:53;;;;;;;39.40;28.13;;;;;;;9.95;71.98;100453.60;1791113;78;25777;-74
2021/04/01 01:53:19;;;;;;;39.95;30.10;;;;;;;9.93;71.88;100455.58;1791205;78;25807;-75
2021/04/01 01:55:45;;;;;;;41.77;30.05;;;;;;;9.94;71.99;100454.59;1791740;78;25349;-75
2021/04/01 01:58:12;;;;;;;44.55;30.15;;;;;;;9.88;71.72;100454.42;1789183;78;25769;-74
2021/04/01 02:00:52;;;;;;;39.67;29.77;;;;;;;9.75;71.85;100451.75;1790089;78;25938;-75
2021/04/01 02:03:18;;;;;;;39.90;28.57;;;;;;;9.67;72.09;100445.19;1791644;78;25269;-75
2021/04/01 02:05:44;;;;;;;41.25;27.20;;;;;;;9.58;72.11;100444.84;1791779;78;25350;-75
2021/04/01 02:08:13;;;;;;;38.43;27.97;;;;;;;9.55;72.34;100431.61;1791763;78;31252;-74
2021/04/01 02:10:46;;;;;;;40.43;29.23;;;;;;;9.53;72.32;100428.83;1789838;78;25807;-75
2021/04/01 02:13:16;;;;;;;39.25;27.67;;;;;;;9.46;72.20;100432.53;1790678;78;26024;-75
2021/04/01 02:15:44;;;;;;;39.65;27.13;;;;;;;9.39;72.42;100431.53;1758976;80;33907;-75
2021/04/01 02:18:14;;;;;;;38.02;27.10;;;;;;;9.43;72.57;100433.34;1819343;77;26619;-75
2021/04/01 02:20:48;;;;;;;42.03;29.25;;;;;;;9.43;72.38;100426.81;1822031;77;25726;-74
2021/04/01 02:23:23;;;;;;;41.00;27.98;;;;;;;9.35;72.33;100426.28;1822412;77;25748;-75
2021/04/01 02:25:50;;;;;;;38.88;28.50;;;;;;;9.38;72.79;100422.55;1758603;80;25788;-75
2021/04/01 02:28:21;;;;;;;38.63;28.23;;;;;;;9.42;72.85;100418.67;1791230;78;25695;-78
2021/04/01 02:30:49;;;;;;;;;;;;;;;9.44;72.85;100420.16;1764247;80;26156;-77
2021/04/01 02:33:18;;;;;;;40.35;29.15;;;;;;;9.45;72.83;100418.35;1819463;77;26574;-78
2021/04/01 02:35:44;;;;;;;42.60;28.67;;;;;;;9.41;72.75;100413.95;1821129;77;26425;-77
2021/04/01 02:38:11;;;;;;;41.40;30.12;;;;;;;9.34;72.69;100407.70;1820331;77;26510;-78
2021/04/01 02:40:38;;;;;;;39.45;28.77;;;;;;;9.27;72.71;100402.77;1804050;77;25697;-77
2021/04/01 02:43:05;;;;;;;41.50;29.80;;;;;;;9.25;72.80;100406.04;1803712;78;25851;-78
2021/04/01 02:45:32;;;;;;;39.40;28.23;;;;;;;9.23;72.87;100398.84;1801097;78;25752;-78
2021/04/01 02:47:58;;;;;;;40.60;27.30;;;;;;;9.20;72.88;100397.37;1801558;78;25820;-78
2021/04/01 02:50:25;;;;;;;36.60;26.62;;;;;;;9.17;72.87;100390.34;1761755;80;25803;-78
2021/04/01 02:52:51;;;;;;;35.38;26.48;;;;;;;9.14;72.94;100391.47;1765128;80;25807;-78
2021/04/01 02:55:17;;;;;;;37.93;27.87;;;;;;;9.14;72.93;100394.08;1764031;80;25674;-78
2021/04/01 02:57:43;;;;;;;37.15;26.97;;;;;;;9.16;73.09;100388.20;1768734;80;25889;-75
2021/04/01 03:00:15;;;;;;;37.37;26.50;;;;;;;9.17;72.93;100395.08;1766377;80;25367;-75
2021/04/01 03:02:52;;;;;;;41.73;29.02;;;;;;;9.18;73.03;100393.28;1766502;80;25369;-75
2021/04/01 03:05:13;;;;;;;38.00;28.77;;;;;;;9.21;72.97;100390.36;1765936;80;26007;-75
2021/04/01 03:07:40;;;;;;;37.97;28.87;;;;;;;9.19;72.93;100393.10;1767625;80;33175;-76
2021/04/01 03:10:11;;;;;;;38.20;28.45;;;;;;;9.19;72.95;100393.10;1766772;80;25335;-76
2021/04/01 03:12:38;;;;;;;45.83;31.68;;;;;;;9.11;72.73;100389.99;1769159;80;25790;-75
2021/04/01 03:15:07;;;;;;;47.75;30.30;;;;;;;9.02;72.85;100388.78;1766191;80;26223;-75
2021/04/01 03:17:33;;;;;;;40.20;30.48;;;;;;;8.96;72.92;100388.11;1767687;80;25405;-75
2021/04/01 03:19:59;;;;;;;41.42;29.85;;;;;;;8.91;73.09;100383.83;1766116;79;25799;-76
2021/04/01 03:22:25;;;;;;;42.88;29.37;;;;;;;8.92;73.15;100382.39;1766884;80;25915;-75
2021/04/01 03:24:51;;;;;;;46.10;29.70;;;;;;;8.85;73.02;100374.34;1767094;80;25967;-75
2021/04/01 03:27:17;;;;;;;37.78;28.55;;;;;;;8.84;73.24;100372.72;1766783;80;25864;-75
2021/04/01 03:29:43;;;;;;;40.47;27.20;;;;;;;8.79;73.15;100368.94;1766020;79;25612;-75
2021/04/01 03:32:09;;;;;;;41.37;27.17;;;;;;;8.76;73.16;100364.86;1745087;80;34989;-75
2021/04/01 03:34:35;;;;;;;41.63;29.53;;;;;;;8.75;73.24;100361.09;1762961;80;29251;-75
2021/04/01 03:37:01;;;;;;;40.37;28.50;;;;;;;8.81;73.37;100364.38;1764727;80;25825;-75
2021/04/01 03:39:26;;;;;;;39.53;27.70;;;;;;;8.86;73.43;100362.13;1752154;79;25934;-76
2021/04/01 03:41:52;;;;;;;47.23;30.13;;;;;;;8.84;73.26;100362.30;1748256;80;25789;-75
2021/04/01 03:44:18;;;;;;;40.97;29.73;;;;;;;8.87;73.26;100359.37;1732091;81;33125;-75
2021/04/01 03:46:44;;;;;;;40.78;30.50;;;;;;;8.84;73.15;100357.58;1778099;79;25791;-75
2021/04/01 03:49:10;;;;;;;42.87;31.27;;;;;;;8.81;73.22;100355.25;1776571;79;25807;-75
2021/04/01 03:51:35;;;;;;;40.93;30.50;;;;;;;8.79;73.22;100349.40;1751354;79;25991;-75
2021/04/01 03:54:01;;;;;;;43.63;30.90;;;;;;;8.76;73.29;100353.13;1752471;79;25676;-76
2021/04/01 03:56:27;;;;;;;44.90;30.95;;;;;;;8.75;73.33;100345.45;1732187;80;25360;-75
2021/04/01 03:58:58;;;;;;;40.87;30.87;;;;;;;8.74;73.34;100346.43;1751350;79;29674;-75
2021/04/01 04:14:45;;;;;;;45.80;29.87;;;;;;;8.49;73.69;100323.31;1706434;82;26448;-75
2021/04/01 04:17:10;;;;;;;50.52;31.00;;;;;;;8.47;73.78;100323.45;1705749;82;26105;-76
2021/04/01 04:19:36;;;;;;;46.10;30.87;;;;;;;8.42;73.88;100321.30;1705913;82;25855;-75
2021/04/01 04:22:03;;;;;;;39.90;29.53;;;;;;;8.39;73.98;100315.09;1706809;82;32056;-75
2021/04/01 04:24:31;;;;;;;43.92;28.50;;;;;;;8.41;74.11;100312.34;1704935;82;25794;-75
2021/04/01 04:27:01;;;;;;;44.30;30.65;;;;;;;8.43;74.07;100308.63;1706967;80;26601;-75
2021/04/01 04:29:24;;;;;;;48.83;31.77;;;;;;;8.52;74.14;100312.59;1705623;82;25909;-75
2021/04/01 04:31:49;;;;;;;51.63;32.93;;;;;;;8.58;74.07;100311.47;1706355;82;25698;-75
2021/04/01 04:34:15;;;;;;;49.03;32.83;;;;;;;8.57;73.98;100307.25;1706114;82;32082;-75
2021/04/01 04:36:41;;;;;;;51.87;32.10;;;;;;;8.60;74.06;100308.73;1700346;82;30752;-75
2021/04/01 04:39:06;;;;;;;49.43;34.33;;;;;;;8.61;73.98;100308.56;1666948;83;25430;-75
2021/04/01 04:41:32;;;;;;;54.63;34.97;;;;;;;8.58;73.97;100306.27;1784164;78;25406;-75
2021/04/01 04:43:58;;;;;;;50.50;33.87;;;;;;;8.58;74.09;100301.55;1792206;78;25843;-75
2021/04/01 04:46:24;;;;;;;48.27;31.43;;;;;;;8.54;74.04;100305.41;1789273;78;31141;-76
2021/04/01 04:48:49;;;;;;;55.47;34.77;;;;;;;8.51;74.06;100292.23;1760193;80;27745;-75
2021/04/01 04:51:15;;;;;;;46.37;32.83;;;;;;;8.52;74.23;100294.35;1759332;79;25819;-75
2021/04/01 04:53:41;;;;;;;43.90;30.47;;;;;;;8.50;74.30;100293.19;1758626;79;25347;-75
2021/04/01 04:56:11;;;;;;;48.83;31.63;;;;;;;8.49;74.37;100292.05;1759196;80;25870;-75
2021/04/01 04:58:55;;;;;;;46.00;30.15;;;;;;;8.54;74.54;100297.14;1757118;79;25748;-75
2021/04/01 05:08:58;;;;;;;53.17;35.20;;;;;;;8.99;74.65;100292.15;1734019;80;25783;-75
2021/04/01 05:11:25;;;;;;;49.87;33.07;;;;;;;9.04;74.58;100292.99;1756999;79;34005;-76
2021/04/01 05:13:51;;;;;;;48.92;34.40;;;;;;;9.12;74.52;100291.72;1760648;79;25802;-75
2021/04/01 05:16:16;;;;;;;49.63;34.80;;;;;;;9.20;74.82;100289.14;1757538;80;26195;-75
2021/04/01 05:18:43;;;;;;;47.90;34.70;;;;;;;9.22;74.74;100283.30;1759011;80;26639;-75
2021/04/01 05:21:11;;;;;;;50.38;36.03;;;;;;;9.27;74.85;100282.80;1759389;79;25361;-75
2021/04/01 05:23:45;;;;;;;50.88;34.85;;;;;;;9.29;74.96;100279.05;1758150;80;25757;-78
2021/04/01 05:28:48;;;;;;;49.65;35.38;;;;;;;9.35;75.20;100265.87;1758385;79;26635;-78
2021/04/01 05:31:13;;;;;;;51.50;33.95;;;;;;;9.39;75.38;100269.80;1758257;79;25882;-75
2021/04/01 05:33:43;;;;;;;49.10;32.98;;;;;;;9.44;75.56;100265.39;1760646;79;25965;-75
2021/04/01 05:36:09;;;;;;;56.65;36.00;;;;;;;9.49;75.61;100265.73;1755716;80;25997;-75
2021/04/01 05:38:35;;;;;;;50.85;35.83;;;;;;;9.55;75.89;100259.90;1757045;79;26384;-75
2021/04/01 05:41:02;;;;;;;52.98;34.70;;;;;;;9.60;76.00;100262.00;1759239;79;26367;-76
2021/04/01 05:43:33;;;;;;;51.20;34.00;;;;;;;9.70;76.18;100260.06;1758252;79;26280;-75
2021/04/01 05:46:02;;;;;;;47.03;33.60;;;;;;;9.80;76.29;100254.20;1757521;79;25766;-75
2021/04/01 05:48:36;;;;;;;49.90;33.73;;;;;;;9.91;76.36;100254.37;1756922;79;26583;-76
2021/04/01 06:04:28;;;;;;;54.13;36.38;;;;;;;10.23;76.62;100246.52;1819286;77;26577;-78
2021/04/01 06:07:13;;;;;;;49.10;35.15;;;;;;;10.35;76.87;100239.67;1818791;77;25656;-78
2021/04/01 06:09:50;;;;;;;45.75;34.30;;;;;;;10.43;76.95;100235.23;1760709;79;25940;-78
2021/04/01 06:12:15;;;;;;;44.55;31.82;;;;;;;10.52;76.95;100239.14;1733513;81;25842;-75
2021/04/01 06:14:58;;;;;;;47.83;32.93;;;;;;;10.60;76.96;100236.00;1732136;81;34968;-75
2021/04/01 06:17:27;;;;;;;62.55;33.92;;;;;;;10.69;77.06;100235.48;1730453;81;25903;-76
2021/04/01 06:19:59;;;;;;;48.95;32.63;;;;;;;10.82;76.98;100237.56;1732219;80;26216;-75
2021/04/01 06:22:26;;;;;;;39.78;30.30;;;;;;;10.91;77.11;100239.65;1731279;81;25845;-75
2021/04/01 06:24:53;;;;;;;43.60;31.55;;;;;;;10.98;77.10;100234.07;1730703;81;25799;-77
2021/04/01 06:27:36;;;;;;;51.77;33.78;;;;;;;11.09;77.14;100231.07;1730924;81;25815;-79
2021/04/01 06:32:41;;;;;;;49.50;33.23;;;;;;;11.34;77.22;100233.86;1699606;82;25853;-77
2021/04/01 06:35:22;;;;;;;54.98;35.55;;;;;;;11.47;77.21;100224.14;1762025;79;25944;-74
2021/04/01 06:40:13;;;;;;;46.85;33.00;;;;;;;11.71;77.15;100219.72;1763611;79;25736;-81
2021/04/01 06:43:00;;;;;;;51.88;33.70;;;;;;;11.83;77.15;100218.30;1691809;82;26018;-79
2021/04/01 06:45:29;;;;;;;55.30;35.03;;;;;;;11.96;77.20;100220.36;1728358;81;25628;-75
2021/04/01 06:47:57;;;;;;;50.17;34.33;;;;;;;12.14;77.25;100223.47;1762713;79;25769;-75
2021/04/01 06:50:37;;;;;;;48.17;33.08;;;;;;;12.30;77.09;100217.23;1760806;79;25879;-77
2021/04/01 06:53:11;;;;;;;47.05;32.33;;;;;;;12.42;76.84;100217.62;1689026;82;25331;-75
2021/04/01 06:55:45;;;;;;;43.50;34.00;;;;;;;12.53;76.65;100215.05;1698095;82;25791;-74
2021/04/01 07:03:26;;;;;;;49.58;32.10;;;;;;;12.69;76.31;100189.14;1624063;85;25780;-75
2021/04/01 07:06:04;;;;;;;49.18;30.30;;;;;;;12.91;76.09;100211.80;1641577;85;26159;-75
2021/04/01 07:08:50;;;;;;;53.83;32.03;;;;;;;13.00;75.77;100214.61;1640663;84;25967;-75
2021/04/01 07:11:10;;;;;;;50.03;28.17;;;;;;;13.12;75.63;100217.56;1640015;84;26590;-76
2021/04/01 07:13:47;;;;;;;46.20;27.13;;;;;;;13.21;75.14;100207.79;1641046;85;25866;-74
2021/04/01 07:19:14;;;;;;;43.38;27.30;;;;;;;13.33;74.71;100211.06;1642751;84;25730;-75
2021/04/01 07:22:28;;;;;;;45.23;27.65;;;;;;;13.42;74.58;100207.84;1638011;84;25922;-76
2021/04/01 07:24:31;;;;;;;43.17;24.27;;;;;;;13.54;74.44;100206.33;1641752;84;25830;-75
2021/04/01 07:48:30;;;;;;;35.85;25.08;;;;;;;14.34;70.99;100186.39;1590397;88;25661;-76
2021/04/01 07:50:56;;;;;;;36.85;25.50;;;;;;;14.42;71.19;100188.35;1616030;86;26714;-76
2021/04/01 07:53:25;;;;;;;36.77;24.47;;;;;;;14.46;70.76;100184.86;1647339;84;25873;-75
2021/04/01 07:56:17;;;;;;;38.20;25.02;;;;;;;14.50;70.23;100180.01;1626450;84;25954;-73
2021/04/01 07:58:57;;;;;;;34.98;24.60;;;;;;;14.53;70.46;100177.02;1644499;85;26546;-76
2021/04/01 08:03:59;;;;;;;37.88;25.92;;;;;;;14.71;70.37;100179.94;1646118;83;25927;-76
2021/04/01 08:06:28;;;;;;;35.28;24.95;;;;;;;14.83;70.39;100175.72;1646439;84;25881;-75
2021/04/01 08:09:11;;;;;;;37.73;27.15;;;;;;;14.95;70.05;100161.50;1645877;85;30693;-75
2021/04/01 08:11:48;;;;;;;36.30;24.85;;;;;;;15.05;69.42;100164.54;1641685;85;25942;-77
2021/04/01 08:14:31;;;;;;;41.68;27.60;;;;;;;15.13;69.42;100160.91;1640661;84;25795;-79
2021/04/01 08:17:07;;;;;;;38.45;27.73;;;;;;;15.20;69.41;100159.12;1642734;84;25870;-74
2021/04/01 08:19:35;;;;;;;40.05;26.93;;;;;;;15.30;69.45;100152.96;1732864;79;25732;-75
2021/04/01 08:22:03;;;;;;;42.40;27.32;;;;;;;15.34;69.02;100146.78;1687877;81;25355;-74
2021/04/01 08:24:35;;;;;;;33.92;26.02;;;;;;;15.44;68.32;100147.68;1698298;82;25764;-73
2021/04/01 08:27:18;;;;;;;32.17;24.25;;;;;;;15.53;67.98;100142.53;1696833;82;25320;-76
2021/04/01 08:30:52;;;;;;;36.48;25.85;;;;;;;15.64;67.77;100145.06;1691969;82;25856;-74
2021/04/01 08:32:32;;;;;;;37.08;26.17;;;;;;;15.76;67.70;100144.26;1694548;82;26478;-75
2021/04/01 08:34:48;;;;;;;33.42;24.32;;;;;;;15.83;66.22;100139.51;1709089;81;25793;-75
2021/04/01 08:37:16;;;;;;;37.38;26.55;;;;;;;15.91;67.05;100134.02;1698929;82;25432;-77
2021/04/01 08:39:45;;;;;;;38.53;26.70;;;;;;;15.99;66.99;100131.17;1694973;82;26322;-74
2021/04/01 08:42:34;;;;;;;34.78;25.65;;;;;;;16.13;67.17;100122.72;1669880;82;26451;-76
2021/04/01 08:45:31;;;;;;;33.60;27.13;;;;;;;16.26;66.82;100123.16;1700003;82;25885;-74
2021/04/01 08:48:29;;;;;;;41.25;24.27;;;;;;;16.34;65.77;100123.77;1675453;84;26006;-73
2021/04/01 08:51:09;;;;;;;33.58;23.92;;;;;;;16.47;65.28;100119.45;1619295;86;25793;-74
2021/04/01 08:54:03;;;;;;;36.85;23.52;;;;;;;16.57;65.23;100115.34;1637400;85;25807;-75
2021/04/01 08:56:52;;;;;;;34.48;24.15;;;;;;;16.66;64.78;100110.63;1636788;85;25989;-74
2021/04/01 08:59:32;;;;;;;28.98;21.12;;;;;;;16.79;63.99;100111.91;1636746;85;26539;-76
2021/04/01 09:01:59;;;;;;;31.23;21.33;;;;;;;16.93;63.89;100115.80;1637947;84;25670;-75
2021/04/01 09:04:35;;;;;;;32.60;22.82;;;;;;;17.05;64.22;100108.31;1640651;85;25860;-74
2021/04/01 09:07:10;;;;;;;31.85;21.75;;;;;;;17.17;63.53;100109.73;1641327;85;26447;-74
2021/04/01 09:09:39;;;;;;;45.40;23.02;;;;;;;17.26;62.80;100101.03;1641977;85;26525;-76
2021/04/01 09:12:23;;;;;;;45.08;24.50;;;;;;;17.31;63.26;100099.36;1637405;85;25840;-76
2021/04/01 09:14:49;;;;;;;40.98;22.13;;;;;;;17.42;62.38;100093.08;1637604;85;31494;-75
2021/04/01 09:17:16;;;;;;;31.68;20.85;;;;;;;17.50;61.63;100094.13;1637124;85;26614;-75
2021/04/01 09:19:45;;;;;;;36.20;21.48;;;;;;;17.56;61.25;100091.13;1640686;85;26315;-75
2021/04/01 09:22:25;;;;;;;32.42;19.82;;;;;;;17.66;61.51;100082.20;1636169;85;25845;-76
2021/04/01 09:24:58;;;;;;;29.75;20.77;;;;;;;17.75;61.29;100080.36;1637362;85;26041;-75
2021/04/01 09:27:25;;;;;;;29.42;19.82;;;;;;;17.88;60.11;100078.13;1620387;82;26001;-77
2021/04/01 09:30:08;;;;;;;28.77;17.60;;;;;;;18.01;59.17;100083.00;1733819;79;25733;-76
2021/04/01 09:32:37;;;;;;;27.40;19.10;;;;;;;18.10;57.67;100073.72;1765845;79;25898;-74
2021/04/01 09:35:06;;;;;;;40.85;22.00;;;;;;;18.22;59.08;100072.45;1742168;79;26514;-76
2021/04/01 09:37:33;;;;;;;30.90;18.03;;;;;;;18.33;58.75;100073.03;1766725;79;26781;-77
2021/04/01 09:40:13;;;;;;;29.27;19.37;;;;;;;18.44;57.98;100072.79;1763767;79;25795;-76
2021/04/01 09:42:42;;;;;;;35.30;17.80;;;;;;;18.50;58.01;100062.12;1764713;79;25836;-76
2021/04/01 09:45:11;;;;;;;37.15;19.57;;;;;;;18.58;56.20;100066.31;1764212;79;25819;-76
2021/04/01 09:48:02;;;;;;;32.38;19.20;;;;;;;18.62;57.56;100056.34;1766106;79;25855;-75
2021/04/01 09:50:35;;;;;;;25.10;16.02;;;;;;;18.70;56.83;100058.39;1688908;81;26021;-77
2021/04/01 09:53:20;;;;;;;31.27;17.17;;;;;;;18.77;56.16;100055.15;1729117;81;25790;-77
2021/04/01 09:55:49;;;;;;;30.15;14.95;;;;;;;18.86;55.59;100055.13;1729100;81;25667;-78
2021/04/01 09:58:37;;;;;;;40.30;16.43;;;;;;;18.94;55.34;100048.18;1698463;82;26286;-76
2021/04/01 10:01:26;;;;;;;31.42;15.55;;;;;;;19.02;53.88;100043.08;1710610;81;26668;-73
2021/04/01 10:03:50;;;;;;;36.17;19.10;;;;;;;19.11;54.12;100035.59;1760959;79;25947;-76
2021/04/01 10:06:50;;;;;;;34.67;17.48;;;;;;;19.17;53.32;100041.29;1766721;79;25980;-77
2021/04/01 10:09:16;;;;;;;32.42;18.02;;;;;;;19.18;52.77;100039.75;1744807;79;25883;-75
2021/04/01 10:12:07;;;;;;;29.85;16.25;;;;;;;19.21;53.61;100041.14;1758691;80;25703;-74
2021/04/01 10:14:33;;;;;;;27.98;15.88;;;;;;;19.25;52.42;100031.67;1757257;80;26137;-74
2021/04/01 10:17:03;;;;;;;34.70;16.75;;;;;;;19.38;52.77;100030.13;1733222;80;25913;-79
2021/04/01 10:19:40;;;;;;;26.93;14.25;;;;;;;19.45;53.23;100019.39;1732402;81;25850;-76
2021/04/01 10:22:08;;;;;;;29.02;14.90;;;;;;;19.57;51.85;100026.03;1755333;80;25770;-74
2021/04/01 10:24:36;;;;;;;30.45;16.60;;;;;;;19.56;51.20;100017.77;1749697;79;25677;-73
2021/04/01 10:27:13;;;;;;;28.70;15.40;;;;;;;19.57;51.00;100016.22;1756161;80;25992;-76
2021/04/01 10:32:08;;;;;;;29.02;14.63;;;;;;;19.69;50.04;100017.55;1755646;79;25688;-75
2021/04/01 10:34:51;;;;;;;26.33;14.15;;;;;;;19.65;50.35;100009.23;1757689;80;25675;-80
2021/04/01 10:37:21;;;;;;;26.37;14.35;;;;;;;19.67;50.24;100010.34;1761246;79;25380;-76
2021/04/01 10:39:47;;;;;;;32.45;15.40;;;;;;;19.66;50.27;100002.11;1758534;80;33861;-76
2021/04/01 10:42:24;;;;;;;30.25;15.03;;;;;;;19.66;50.41;100002.91;1760269;80;25357;-75
2021/04/01 10:45:06;;;;;;;34.27;16.73;;;;;;;19.66;50.91;100005.56;1758760;80;25777;-77
2021/04/01 10:47:41;;;;;;;31.68;16.12;;;;;;;19.69;50.97;100001.64;1759956;80;25766;-75
2021/04/01 10:50:08;;;;;;;27.70;15.32;;;;;;;19.76;50.41;100000.20;1700153;82;25672;-74
2021/04/01 10:52:34;;;;;;;30.12;14.45;;;;;;;19.83;50.26;99998.20;1697612;83;25804;-75
2021/04/01 10:55:00;;;;;;;31.20;15.58;;;;;;;19.85;49.38;100000.11;1699102;82;33635;-76
2021/04/01 10:57:30;;;;;;;29.67;16.15;;;;;;;19.87;48.53;99985.58;1698148;82;26081;-75
2021/04/01 11:00:00;;;;;;;36.05;16.07;;;;;;;19.88;48.88;99981.88;1700664;82;25815;-75
2021/04/01 11:02:40;;;;;;;33.58;17.07;;;;;;;19.91;48.50;99980.06;1694850;83;25439;-75
2021/04/01 11:05:15;;;;;;;36.75;15.68;;;;;;;19.90;46.09;99979.00;1702235;82;25932;-76
2021/04/01 11:07:46;;;;;;;31.48;15.45;;;;;;;19.96;46.83;99978.84;1701488;82;25713;-75
2021/04/01 11:10:24;;;;;;;32.73;15.28;;;;;;;20.09;47.33;99985.73;1708467;81;25704;-75
2021/04/01 11:12:55;;;;;;;33.10;16.48;;;;;;;20.18;47.79;99972.88;1715195;82;25718;-76
2021/04/01 11:15:29;;;;;;;35.75;14.58;;;;;;;20.17;46.95;99965.45;1715644;82;25744;-76
2021/04/01 11:18:14;;;;;;;29.80;14.75;;;;;;;20.12;44.35;99968.00;1714381;82;26097;-75
2021/04/01 11:20:43;;;;;;;28.95;14.80;;;;;;;20.08;46.78;99968.70;1712720;81;25782;-74
2021/04/01 11:23:14;;;;;;;25.37;13.88;;;;;;;20.08;46.78;99966.88;1712065;81;26606;-75
2021/04/01 11:25:53;;;;;;;24.10;13.65;;;;;;;20.08;45.30;99964.23;1717281;81;26064;-74
2021/04/01 11:28:39;;;;;;;26.25;14.65;;;;;;;20.06;45.80;99961.53;1758436;79;32432;-73
2021/04/01 11:31:09;;;;;;;30.05;14.20;;;;;;;20.03;46.45;99954.84;1768626;79;26418;-76
2021/04/01 11:33:37;;;;;;;26.97;14.80;;;;;;;20.08;46.38;99960.25;1769340;79;25863;-75
2021/04/01 11:38:48;;;;;;;27.02;13.50;;;;;;;20.13;45.64;99962.17;1768840;79;26718;-76
2021/04/01 11:41:13;;;;;;;32.05;15.13;;;;;;;20.18;44.58;99952.98;1766361;79;25753;-75
2021/04/01 11:43:40;;;;;;;26.23;15.75;;;;;;;20.19;45.59;99949.30;1767569;79;25671;-75
2021/04/01 11:46:27;;;;;;;30.02;15.23;;;;;;;20.30;44.59;99950.28;1769934;79;25786;-75
2021/04/01 11:48:57;;;;;;;26.25;15.15;;;;;;;20.35;44.58;99952.50;1768524;79;25942;-75
2021/04/01 11:51:30;;;;;;;26.20;12.88;;;;;;;20.41;42.41;99948.08;1769507;79;25868;-75
2021/04/01 11:53:56;;;;;;;26.93;14.40;;;;;;;20.49;43.64;99955.66;1769381;79;26550;-75
2021/04/01 11:56:25;;;;;;;29.75;15.48;;;;;;;20.51;41.63;99948.76;1769626;79;25785;-73
2021/04/01 11:58:52;;;;;;;22.07;13.20;;;;;;;20.49;42.68;99948.19;1766820;79;27469;-76
2021/04/01 12:06:17;;;;;;;27.02;15.15;;;;;;;20.48;42.76;99938.62;1770593;79;25865;-75
2021/04/01 12:08:43;;;;;;;31.93;13.70;;;;;;;20.56;40.95;99935.06;1743255;79;25729;-74
2021/04/01 12:11:09;;;;;;;26.10;14.00;;;;;;;20.66;40.56;99931.78;1770058;78;25760;-76
2021/04/01 12:13:35;;;;;;;23.25;12.68;;;;;;;20.76;40.95;99926.63;1770015;79;30716;-74
2021/04/01 12:16:01;;;;;;;24.57;13.70;;;;;;;20.90;40.11;99932.91;1769292;79;35275;-75
2021/04/01 12:18:41;;;;;;;24.10;14.73;;;;;;;21.03;39.56;99922.77;1740779;80;31667;-75
2021/04/01 12:21:08;;;;;;;31.35;16.02;;;;;;;21.06;38.22;99919.63;1766994;79;25770;-74
2021/04/01 12:23:56;;;;;;;28.35;15.40;;;;;;;21.09;38.89;99914.34;1768567;79;25929;-74
2021/04/01 12:26:24;;;;;;;23.42;14.30;;;;;;;21.15;39.24;99906.71;1768764;80;25747;-76
2021/04/01 12:29:03;;;;;;;29.55;14.43;;;;;;;21.22;39.45;99909.97;1767367;79;25746;-73
2021/04/01 12:31:42;;;;;;;24.75;14.45;;;;;;;21.32;38.52;99907.19;1755057;79;25975;-74
2021/04/01 12:34:11;;;;;;;28.30;14.60;;;;;;;21.42;38.78;99904.69;1768273;79;26517;-74
2021/04/01 12:36:39;;;;;;;25.15;13.53;;;;;;;21.47;35.27;99901.56;1741717;80;25789;-76
2021/04/01 12:39:08;;;;;;;31.73;14.17;;;;;;;21.39;35.34;99895.35;1770487;79;26379;-75
2021/04/01 12:41:36;;;;;;;26.42;14.78;;;;;;;21.33;33.38;99894.95;1767293;79;25799;-74
2021/04/01 12:44:06;;;;;;;27.32;13.53;;;;;;;21.20;36.93;99884.19;1770138;79;25833;-75
2021/04/01 12:46:44;;;;;;;27.25;16.60;;;;;;;21.17;37.05;99883.36;1743020;80;25926;-75
2021/04/01 12:49:14;;;;;;;28.10;15.90;;;;;;;21.14;37.42;99883.02;1755519;79;25853;-75
2021/04/01 12:51:58;;;;;;;27.13;16.40;;;;;;;21.06;37.49;99878.93;1770606;79;26320;-77
2021/04/01 12:54:32;;;;;;;27.95;15.95;;;;;;;21.03;38.41;99882.91;1767988;79;25810;-74